createdAt,value
2023-01-09T00:10:01.657Z,89.88
2023-01-09T00:20:07.725Z,90.74
2023-01-09T00:30:11.800Z,91.40
2023-01-09T00:40:18.227Z,91.77
2023-01-09T00:50:24.333Z,92.65
2023-01-09T01:00:28.321Z,93.01
2023-01-09T01:10:31.057Z,93.46
2023-01-09T01:20:35.507Z,95.59
2023-01-09T01:30:39.855Z,96.09
2023-01-09T01:40:43.998Z,95.72
2023-01-09T01:50:49.607Z,98.16
2023-01-09T02:00:54.213Z,98.85
2023-01-09T02:10:57.709Z,99.69
2023-01-09T02:21:05.768Z,100.52
2023-01-09T02:31:15.387Z,100.35
2023-01-09T02:41:22.901Z,100.73
2023-01-09T02:51:36.475Z,100.99
2023-01-09T03:01:46.433Z,100.95
2023-01-09T03:11:54.533Z,100.97
2023-01-09T03:21:58.292Z,100.78
2023-01-09T03:32:02.339Z,100.96
2023-01-09T03:42:05.535Z,101.22
2023-01-09T03:52:09.551Z,101.20
2023-01-09T04:02:12.366Z,101.23
2023-01-09T04:12:16.571Z,101.66
2023-01-09T04:22:20.395Z,101.70
2023-01-09T04:32:24.471Z,101.86
2023-01-09T04:42:27.150Z,101.91
2023-01-09T04:52:31.338Z,101.80
2023-01-09T05:02:33.988Z,101.71
2023-01-09T05:12:39.677Z,101.81
2023-01-09T05:22:42.405Z,101.88
2023-01-09T05:32:46.568Z,101.77
2023-01-09T05:42:49.331Z,101.85
2023-01-09T05:52:53.510Z,101.58
2023-01-09T06:02:56.226Z,101.93
2023-01-09T06:13:00.422Z,102.38
2023-01-09T06:23:08.663Z,102.30
2023-01-09T06:33:12.718Z,102.13
2023-01-09T06:43:15.513Z,101.94
2023-01-09T06:53:19.586Z,101.30
2023-01-09T07:03:22.606Z,100.15
2023-01-09T07:13:26.656Z,99.73
2023-01-09T07:23:29.340Z,99.63
2023-01-09T07:33:33.348Z,99.78
2023-01-09T07:43:36.875Z,98.94
2023-01-09T07:53:41.076Z,98.68
2023-01-09T08:03:43.804Z,98.30
2023-01-09T08:13:47.833Z,97.90
2023-01-09T08:23:50.493Z,97.98
2023-01-09T08:33:54.584Z,97.24
2023-01-09T08:44:15.058Z,97.23
2023-01-09T08:54:19.123Z,97.29
2023-01-09T09:04:21.845Z,97.52
2023-01-09T09:14:43.791Z,96.77
2023-01-09T09:24:46.470Z,97.10
2023-01-09T09:34:50.595Z,97.33
2023-01-09T09:45:07.678Z,96.21
2023-01-09T09:55:18.531Z,95.65
2023-01-09T10:05:26.761Z,94.77
2023-01-09T10:15:42.268Z,95.03
2023-01-09T10:25:49.945Z,96.14
2023-01-09T10:36:13.511Z,94.52
2023-01-09T10:46:20.439Z,94.46
2023-01-09T10:56:27.489Z,92.50
2023-01-09T11:06:38.136Z,91.68
2023-01-09T11:16:51.594Z,92.33
2023-01-09T11:26:55.736Z,91.18
2023-01-09T11:37:07.247Z,91.24
2023-01-09T11:47:26.689Z,91.78
2023-01-09T11:57:31.441Z,92.41
2023-01-09T12:07:49.096Z,92.56
2023-01-09T12:18:23.642Z,94.14
2023-01-09T12:28:44.403Z,95.07
2023-01-09T12:38:55.581Z,96.07
2023-01-09T12:49:19.642Z,96.55
2023-01-09T12:59:35.884Z,96.54
2023-01-09T13:09:44.589Z,97.03
2023-01-09T13:19:48.887Z,96.26
2023-01-09T13:29:55.837Z,96.33
2023-01-09T13:40:02.050Z,96.95
2023-01-09T13:50:27.327Z,97.32
2023-01-09T14:00:51.128Z,97.26
2023-01-09T14:10:57.691Z,97.52
2023-01-09T14:21:04.095Z,97.33
2023-01-09T14:31:09.676Z,97.49
2023-01-09T14:41:42.679Z,97.29
2023-01-09T14:51:47.946Z,97.43
2023-01-09T15:01:56.580Z,97.26
2023-01-09T15:12:05.296Z,97.67
2023-01-09T15:22:23.071Z,99.47
2023-01-09T15:32:28.629Z,99.94
2023-01-09T15:42:56.317Z,100.90
2023-01-09T15:52:59.997Z,100.70
2023-01-09T16:03:15.754Z,100.61
2023-01-09T16:13:18.765Z,100.98
2023-01-09T16:23:25.524Z,100.64
2023-01-09T16:33:30.338Z,99.77
2023-01-09T16:43:34.416Z,99.56
2023-01-09T16:53:37.119Z,99.98
2023-01-09T17:03:43.670Z,100.28
2023-01-09T17:13:47.922Z,100.77
2023-01-09T17:24:12.946Z,100.61
2023-01-09T17:34:15.645Z,98.89
2023-01-09T17:44:19.768Z,97.29
2023-01-09T17:54:22.562Z,96.77
2023-01-09T18:04:26.609Z,97.57
2023-01-09T18:14:29.439Z,97.68
2023-01-09T18:24:33.559Z,98.23
2023-01-09T18:34:36.398Z,98.23
2023-01-09T18:44:40.483Z,98.16
2023-01-09T18:54:43.585Z,98.07
2023-01-09T19:04:47.733Z,98.26
2023-01-09T19:14:50.656Z,98.92
2023-01-09T19:24:54.752Z,99.77
2023-01-09T19:34:57.489Z,99.52
2023-01-09T19:45:01.529Z,99.24
2023-01-09T19:55:04.269Z,99.25
2023-01-09T20:05:09.567Z,99.49
2023-01-09T20:15:14.842Z,99.56
2023-01-09T20:25:18.962Z,99.39
2023-01-09T20:35:22.949Z,99.94
2023-01-09T20:45:27.180Z,99.75
2023-01-09T20:55:29.974Z,99.82
2023-01-09T21:05:33.985Z,99.71
2023-01-09T21:15:38.788Z,100.00
2023-01-09T21:25:44.443Z,99.93
2023-01-09T21:35:53.162Z,99.87
2023-01-09T21:46:20.933Z,99.61
2023-01-09T21:56:23.874Z,100.00
2023-01-09T22:06:29.251Z,99.38
2023-01-09T22:16:32.247Z,99.00
2023-01-09T22:26:36.452Z,99.19
2023-01-09T22:36:39.321Z,98.84
2023-01-09T22:46:43.401Z,98.77
2023-01-09T22:56:46.084Z,98.54
2023-01-09T23:06:50.992Z,99.07
2023-01-09T23:16:53.956Z,100.03
2023-01-09T23:26:58.600Z,100.64
2023-01-09T23:37:01.318Z,100.43
2023-01-09T23:47:06.254Z,100.32
2023-01-09T23:57:08.946Z,101.14
